Main page
METAR-TAF:

METAR-TAF

Airports :

Acapulco International Airport

Acapulco, Mexico

latitude: 16-46N, longitude: 099-45W, elevation: 5 m

Current weather observation

The report was made 47 minutes ago, at 21:45 UTC
Wind 7 kt from the West
Temperature 30°C
Humidity 70%
Pressure 1009 hPa
Visibility: 9.7 km
Clear sky

METAR: MMAA 182145Z 27007KT 6SM SKC 30/24 A2980 RMK HZY

Time: 16:32 (22:32 UTC)

Forecast

The report was made 5 hours and 58 minutes ago, at 16:34 UTC
Forecast valid from 18 at 18 UTC to 19 at 24 UTC
Wind 10 kt from the West/Southwest
Visibility: 10 km
Clear sky
From 19 at 0300 UTC
Wind kt from the North
Visibility: 10 km
Scattered clouds at a height of 20000 ft
From 19 at 1800 UTC
Wind 10 kt from the Southwest
Visibility: 10 km
Clear sky

TAF: MMAA 181634Z 1818/1924 24010KT P6SM SKC TX30/1820Z TN24/1912Z FM190300 00000KT P6SM SCT200 FM191800 23010KT P6SM SKC

Weather observations and forecasts of more than 4000 airports (METAR and TAF reports).

The available stations are represented by yellow and red dots on the map.

Hover mouse over dot to see the name of the station.

Then click to see weather observations and forecasts.

To change the map : click on the green buttons with a black cross to zoom in, on the green button with a dash to zoom out, or on the green arrows for adjacent maps.


METAR-TAF: